createdAt,value
2022-10-23T00:00:41.091Z,89.18
2022-10-23T00:01:44.955Z,88.95
2022-10-23T00:02:53.605Z,88.65
2022-10-23T00:04:01.101Z,88.41
2022-10-23T00:05:03.186Z,87.77
2022-10-23T00:06:05.702Z,87.48
2022-10-23T00:07:07.590Z,87.54
2022-10-23T00:08:09.401Z,87.68
2022-10-23T00:09:13.845Z,87.71
2022-10-23T00:10:16.739Z,87.64
2022-10-23T00:11:22.290Z,87.51
2022-10-23T00:12:24.334Z,86.71
2022-10-23T00:13:27.411Z,86.76
2022-10-23T00:14:29.155Z,86.87
2022-10-23T00:15:30.793Z,87.36
2022-10-23T00:16:33.190Z,87.55
2022-10-23T00:17:35.317Z,87.67
2022-10-23T00:18:38.548Z,88.00
2022-10-23T00:19:41.278Z,88.19
2022-10-23T00:20:43.513Z,88.40
2022-10-23T00:21:45.729Z,88.10
2022-10-23T00:22:47.661Z,88.25
2022-10-23T00:23:50.406Z,88.35
2022-10-23T00:24:52.746Z,88.19
2022-10-23T00:25:54.640Z,88.32
2022-10-23T00:26:56.699Z,88.41
2022-10-23T00:27:59.280Z,88.40
2022-10-23T00:29:01.402Z,88.44
2022-10-23T00:30:05.315Z,88.52
2022-10-23T00:31:07.568Z,88.63
2022-10-23T00:32:09.868Z,88.71
2022-10-23T00:33:11.673Z,88.77
2022-10-23T00:34:13.345Z,89.08
2022-10-23T00:35:16.019Z,89.28
2022-10-23T00:36:19.838Z,89.50
2022-10-23T00:37:22.145Z,90.05
2022-10-23T00:38:24.161Z,90.27
2022-10-23T00:39:26.425Z,90.70
2022-10-23T00:40:28.216Z,90.90
2022-10-23T00:41:30.203Z,91.25
2022-10-23T00:42:32.081Z,91.46
2022-10-23T00:43:35.384Z,91.46
2022-10-23T00:44:40.983Z,91.97
2022-10-23T00:45:42.794Z,92.07
2022-10-23T00:46:44.963Z,91.87
2022-10-23T00:47:48.783Z,92.00
2022-10-23T00:48:51.150Z,92.00
2022-10-23T00:49:54.578Z,92.20
2022-10-23T00:50:57.770Z,92.47
2022-10-23T00:52:03.409Z,92.96
2022-10-23T00:53:05.875Z,93.23
2022-10-23T00:54:25.242Z,93.43
2022-10-23T00:55:13.755Z,93.52
2022-10-23T00:56:17.037Z,93.69
2022-10-23T00:57:20.154Z,93.72
2022-10-23T00:58:22.363Z,94.05
2022-10-23T00:59:25.490Z,94.11
2022-10-23T01:00:46.498Z,94.35
2022-10-23T01:01:48.998Z,94.62
2022-10-23T01:02:52.895Z,94.85
2022-10-23T01:03:55.025Z,95.02
2022-10-23T01:04:57.112Z,95.12
2022-10-23T01:06:19.118Z,95.01
2022-10-23T01:07:42.045Z,94.50
2022-10-23T01:08:53.973Z,94.41
2022-10-23T01:10:17.408Z,93.99
2022-10-23T01:13:18.205Z,94.14
2022-10-23T01:14:39.875Z,93.85
2022-10-23T01:15:45.839Z,93.57
2022-10-23T01:16:56.993Z,93.04
2022-10-23T01:18:05.756Z,92.80
2022-10-23T01:19:29.857Z,92.75
2022-10-23T01:20:41.601Z,92.53
2022-10-23T01:22:21.055Z,92.06
2022-10-23T01:23:49.361Z,91.63
2022-10-23T01:25:00.849Z,91.69
2022-10-23T01:26:22.115Z,91.79
2022-10-23T01:27:28.125Z,91.95
2022-10-23T01:28:33.622Z,92.05
2022-10-23T01:31:04.907Z,92.17
2022-10-23T01:32:23.838Z,92.31
2022-10-23T01:33:29.729Z,92.42
2022-10-23T01:34:38.549Z,92.34
2022-10-23T01:35:47.177Z,92.00
2022-10-23T01:36:52.028Z,92.13
2022-10-23T01:37:57.652Z,91.79
2022-10-23T01:40:10.548Z,91.23
2022-10-23T01:41:19.211Z,91.03
2022-10-23T01:42:25.261Z,91.18
2022-10-23T01:43:33.604Z,90.79
2022-10-23T01:44:51.149Z,90.75
2022-10-23T01:45:57.829Z,90.86
2022-10-23T01:47:03.077Z,90.83
2022-10-23T01:48:10.957Z,91.00
2022-10-23T01:49:15.761Z,90.94
2022-10-23T01:50:21.258Z,90.84
2022-10-23T01:51:28.977Z,91.04
2022-10-23T01:52:33.428Z,91.54
2022-10-23T01:53:40.070Z,92.27
2022-10-23T01:54:45.749Z,93.14
2022-10-23T01:55:49.806Z,93.04
2022-10-23T01:56:55.562Z,93.04
2022-10-23T01:58:02.819Z,93.64
2022-10-23T01:59:11.261Z,93.98
2022-10-23T02:00:18.257Z,94.17
2022-10-23T02:01:29.724Z,94.38
2022-10-23T02:02:34.892Z,94.59
2022-10-23T02:03:41.381Z,94.32
2022-10-23T02:05:01.852Z,94.45
2022-10-23T02:06:04.546Z,94.60
2022-10-23T02:07:06.660Z,94.61
2022-10-23T02:08:08.900Z,94.63
2022-10-23T02:09:11.229Z,94.51
2022-10-23T02:10:16.138Z,94.90
2022-10-23T02:11:21.853Z,95.32
2022-10-23T02:12:30.565Z,95.80
2022-10-23T02:13:37.639Z,95.97
2022-10-23T02:15:10.794Z,95.90
2022-10-23T02:16:25.904Z,96.19
2022-10-23T02:17:41.185Z,96.13
2022-10-23T02:18:53.355Z,96.34
2022-10-23T02:19:59.794Z,96.88
2022-10-23T02:21:14.925Z,96.99
2022-10-23T02:22:26.309Z,97.08
2022-10-23T02:23:38.119Z,96.83
2022-10-23T02:24:46.545Z,96.93
2022-10-23T02:25:52.424Z,97.07
2022-10-23T02:26:58.880Z,96.36
2022-10-23T02:28:04.477Z,96.09
2022-10-23T02:30:31.177Z,95.85
2022-10-23T02:31:34.928Z,95.79
2022-10-23T02:32:40.414Z,95.55
2022-10-23T02:33:45.333Z,95.67
2022-10-23T02:34:47.467Z,95.84
2022-10-23T02:35:49.992Z,96.22
2022-10-23T02:36:57.055Z,96.34
2022-10-23T02:38:00.909Z,96.24
2022-10-23T02:39:05.273Z,96.22
2022-10-23T02:40:10.592Z,96.28
2022-10-23T02:41:40.810Z,96.18
2022-10-23T02:42:50.004Z,96.08
2022-10-23T02:44:27.241Z,96.32
2022-10-23T02:45:33.027Z,96.42
2022-10-23T02:46:57.254Z,96.88
2022-10-23T02:48:08.791Z,97.00
2022-10-23T02:49:32.407Z,97.24
2022-10-23T02:50:57.663Z,97.56
2022-10-23T02:52:15.345Z,98.67
2022-10-23T02:53:33.285Z,98.94
2022-10-23T02:54:48.444Z,99.28
2022-10-23T02:56:10.769Z,99.53
2022-10-23T02:57:19.467Z,99.46
2022-10-23T02:58:59.377Z,99.57
2022-10-23T03:00:07.004Z,99.52
2022-10-23T03:01:12.812Z,99.53
2022-10-23T03:02:18.754Z,99.85
2022-10-23T03:03:34.517Z,99.81
2022-10-23T03:04:39.763Z,100.00
2022-10-23T03:05:43.625Z,100.00
2022-10-23T03:06:46.926Z,99.83
2022-10-23T03:07:51.756Z,99.83
2022-10-23T03:08:59.785Z,99.94
2022-10-23T03:10:02.586Z,99.75
2022-10-23T03:11:06.324Z,99.74
2022-10-23T03:12:08.278Z,99.92
2022-10-23T03:13:11.815Z,100.00
2022-10-23T03:14:15.444Z,100.00
2022-10-23T03:15:17.275Z,100.00
2022-10-23T03:16:19.145Z,100.00
2022-10-23T03:17:23.774Z,100.00
2022-10-23T03:18:27.683Z,100.00
2022-10-23T03:19:31.666Z,100.00
2022-10-23T03:20:34.169Z,100.00
2022-10-23T03:21:36.078Z,100.00
2022-10-23T03:22:39.401Z,100.00
2022-10-23T03:23:41.971Z,100.00
2022-10-23T03:24:44.013Z,100.00
2022-10-23T03:25:45.651Z,100.00
2022-10-23T03:26:49.705Z,100.00
2022-10-23T03:27:51.712Z,100.00
2022-10-23T03:28:53.886Z,100.00
2022-10-23T03:29:57.195Z,100.00
2022-10-23T03:30:59.241Z,100.00
2022-10-23T03:32:01.111Z,100.00
2022-10-23T03:33:02.944Z,100.00
2022-10-23T03:34:07.505Z,100.00
2022-10-23T03:35:09.263Z,100.00
2022-10-23T03:36:13.157Z,100.00
2022-10-23T03:37:15.162Z,100.00
2022-10-23T03:38:17.694Z,100.00
2022-10-23T03:39:19.704Z,100.00
2022-10-23T03:40:23.184Z,100.00
2022-10-23T03:41:25.160Z,100.00
2022-10-23T03:42:27.354Z,100.00
2022-10-23T03:43:30.316Z,100.00
2022-10-23T03:44:32.068Z,100.00
2022-10-23T03:45:33.697Z,100.00
2022-10-23T03:46:36.735Z,100.00
2022-10-23T03:47:39.140Z,100.00
2022-10-23T03:48:40.970Z,100.00
2022-10-23T03:49:42.893Z,100.00
2022-10-23T03:50:44.745Z,100.00
2022-10-23T03:51:46.498Z,100.00
2022-10-23T03:52:48.704Z,100.00
2022-10-23T03:53:51.631Z,100.00
2022-10-23T03:54:54.085Z,100.00
2022-10-23T03:55:56.082Z,100.00
2022-10-23T03:56:57.984Z,100.00
2022-10-23T03:58:01.674Z,100.00
2022-10-23T03:59:04.150Z,100.00
2022-10-23T04:00:08.183Z,100.00
2022-10-23T04:01:11.835Z,100.00
2022-10-23T04:02:13.825Z,100.00
2022-10-23T04:03:15.950Z,100.00
2022-10-23T04:04:18.059Z,100.00
2022-10-23T04:05:19.755Z,100.00
2022-10-23T04:06:23.761Z,100.00
2022-10-23T04:07:27.811Z,100.00
2022-10-23T04:08:31.134Z,100.00
2022-10-23T04:09:33.044Z,100.00
2022-10-23T04:10:35.167Z,100.00
2022-10-23T04:11:37.242Z,100.00
2022-10-23T04:12:39.294Z,100.00
2022-10-23T04:13:41.160Z,100.00
2022-10-23T04:14:43.563Z,100.00
2022-10-23T04:15:50.556Z,100.00
2022-10-23T04:16:52.637Z,100.00
2022-10-23T04:17:55.259Z,100.00
2022-10-23T04:18:57.185Z,100.00
2022-10-23T04:19:59.158Z,100.00
2022-10-23T04:21:01.879Z,100.00
2022-10-23T04:22:03.532Z,100.00
2022-10-23T04:23:05.280Z,100.00
2022-10-23T04:24:09.153Z,100.00
2022-10-23T04:25:11.368Z,100.00
2022-10-23T04:26:13.675Z,100.00
2022-10-23T04:27:15.607Z,99.97
2022-10-23T04:28:18.107Z,99.78
2022-10-23T04:29:21.235Z,99.71
2022-10-23T04:30:23.321Z,99.23
2022-10-23T04:31:25.863Z,99.14
2022-10-23T04:32:28.188Z,99.18
2022-10-23T04:33:30.102Z,98.75
2022-10-23T04:34:31.749Z,98.64
2022-10-23T04:35:33.572Z,98.54
2022-10-23T04:36:35.614Z,98.78
2022-10-23T04:37:39.484Z,98.89
2022-10-23T04:38:41.862Z,98.95
2022-10-23T04:39:43.738Z,99.14
2022-10-23T04:40:47.625Z,99.01
2022-10-23T04:41:52.027Z,99.03
2022-10-23T04:42:55.217Z,99.05
2022-10-23T04:43:58.046Z,99.04
2022-10-23T04:45:00.575Z,98.96
2022-10-23T04:46:03.091Z,99.11
2022-10-23T04:47:05.007Z,99.15
2022-10-23T04:48:08.737Z,99.00
2022-10-23T04:49:15.536Z,99.51
2022-10-23T04:50:37.674Z,99.77
2022-10-23T04:51:44.334Z,99.92
2022-10-23T04:53:04.723Z,100.00
2022-10-23T04:54:25.128Z,100.00
2022-10-23T04:55:31.957Z,100.00
2022-10-23T04:56:47.853Z,100.00
2022-10-23T04:57:52.586Z,100.00
2022-10-23T04:58:56.505Z,100.00
2022-10-23T04:59:59.648Z,100.00
2022-10-23T05:01:01.835Z,100.00
2022-10-23T05:02:04.828Z,100.00
2022-10-23T05:03:07.692Z,100.00
2022-10-23T05:04:11.744Z,100.00
2022-10-23T05:06:25.230Z,100.00
2022-10-23T05:07:46.050Z,100.00
2022-10-23T05:09:06.932Z,100.00
2022-10-23T05:10:22.934Z,100.00
2022-10-23T05:11:38.761Z,100.00
2022-10-23T05:12:42.518Z,100.00
2022-10-23T05:13:44.475Z,100.00
2022-10-23T05:14:46.374Z,100.00
2022-10-23T05:15:51.680Z,100.00
2022-10-23T05:16:57.325Z,100.00
2022-10-23T05:18:02.854Z,100.00
2022-10-23T05:19:09.657Z,100.00
2022-10-23T05:20:19.318Z,100.00
2022-10-23T05:21:24.581Z,100.00
2022-10-23T05:22:29.651Z,100.00
2022-10-23T05:23:34.842Z,100.00
2022-10-23T05:24:38.316Z,100.00
2022-10-23T05:25:40.450Z,100.00
2022-10-23T05:26:53.313Z,100.00
2022-10-23T05:27:55.679Z,100.00
2022-10-23T05:28:57.428Z,100.00
2022-10-23T05:29:59.369Z,100.00
2022-10-23T05:31:04.905Z,100.00
2022-10-23T05:32:11.839Z,100.00
2022-10-23T05:33:14.189Z,100.00
2022-10-23T05:34:21.548Z,100.00
2022-10-23T05:35:24.541Z,100.00
2022-10-23T05:36:27.091Z,100.00
2022-10-23T05:37:31.437Z,100.00
2022-10-23T05:38:45.208Z,100.00
2022-10-23T05:39:49.455Z,100.00
2022-10-23T05:40:53.016Z,100.00
2022-10-23T05:41:56.059Z,100.00
2022-10-23T05:43:00.006Z,100.00
2022-10-23T05:44:04.751Z,100.00
2022-10-23T05:45:25.192Z,100.00
2022-10-23T05:46:45.473Z,100.00
2022-10-23T05:48:05.580Z,100.00
2022-10-23T05:49:04.188Z,100.00
2022-10-23T05:50:27.334Z,100.00
2022-10-23T05:51:31.440Z,100.00
2022-10-23T05:52:38.805Z,100.00
2022-10-23T05:53:59.254Z,100.00
2022-10-23T05:55:07.612Z,100.00
2022-10-23T05:56:16.065Z,100.00
2022-10-23T05:57:20.090Z,100.00
2022-10-23T05:58:23.977Z,100.00
2022-10-23T05:59:33.596Z,100.00
2022-10-23T06:00:41.522Z,100.00
2022-10-23T06:01:46.560Z,100.00
2022-10-23T06:02:51.676Z,100.00
2022-10-23T06:03:59.621Z,100.00
2022-10-23T06:05:04.129Z,100.00
2022-10-23T06:06:17.700Z,100.00
2022-10-23T06:07:28.361Z,100.00
2022-10-23T06:08:32.729Z,100.00
2022-10-23T06:09:34.739Z,100.00
2022-10-23T06:10:36.908Z,100.00
2022-10-23T06:11:40.901Z,100.00
2022-10-23T06:12:45.838Z,100.00
2022-10-23T06:13:50.211Z,100.00
2022-10-23T06:14:54.132Z,100.00
2022-10-23T06:15:56.866Z,100.00
2022-10-23T06:17:00.631Z,100.00
2022-10-23T06:18:04.417Z,100.00
2022-10-23T06:19:12.078Z,100.00
2022-10-23T06:20:16.100Z,100.00
2022-10-23T06:21:19.904Z,100.00
2022-10-23T06:22:24.086Z,100.00
2022-10-23T06:23:31.163Z,100.00
2022-10-23T06:24:36.555Z,100.00
2022-10-23T06:25:40.428Z,100.00
2022-10-23T06:26:45.600Z,100.00
2022-10-23T06:27:54.028Z,100.00
2022-10-23T06:28:56.317Z,100.00
2022-10-23T06:29:58.265Z,100.00
2022-10-23T06:31:05.839Z,100.00
2022-10-23T06:32:08.321Z,100.00
2022-10-23T06:33:10.451Z,100.00
2022-10-23T06:34:12.475Z,100.00
2022-10-23T06:35:15.870Z,100.00
2022-10-23T06:36:19.184Z,100.00
2022-10-23T06:37:21.201Z,100.00
2022-10-23T06:38:34.219Z,100.00
2022-10-23T06:39:38.522Z,100.00
2022-10-23T06:40:56.457Z,100.00
2022-10-23T06:42:00.507Z,100.00
2022-10-23T06:43:21.229Z,100.00
2022-10-23T06:44:34.272Z,100.00
2022-10-23T06:45:38.198Z,100.00
2022-10-23T06:46:51.777Z,100.00
2022-10-23T06:47:55.884Z,100.00
2022-10-23T06:49:03.764Z,100.00
2022-10-23T06:50:13.045Z,100.00
2022-10-23T06:51:15.986Z,100.00
2022-10-23T06:52:41.618Z,100.00
2022-10-23T06:53:23.036Z,100.00
2022-10-23T06:54:27.451Z,100.00
2022-10-23T06:55:32.540Z,100.00
2022-10-23T06:56:35.082Z,100.00
2022-10-23T06:57:39.004Z,100.00
2022-10-23T06:58:41.096Z,100.00
2022-10-23T06:59:46.213Z,100.00
2022-10-23T07:00:48.885Z,100.00
2022-10-23T07:01:52.608Z,100.00
2022-10-23T07:02:55.280Z,100.00
2022-10-23T07:03:57.525Z,100.00
2022-10-23T07:05:01.832Z,100.00
2022-10-23T07:06:05.929Z,100.00
2022-10-23T07:07:08.347Z,100.00
2022-10-23T07:08:13.452Z,100.00
2022-10-23T07:09:17.382Z,100.00
2022-10-23T07:10:28.878Z,100.00
2022-10-23T07:11:36.266Z,100.00
2022-10-23T07:12:38.616Z,100.00
2022-10-23T07:13:42.947Z,100.00
2022-10-23T07:14:46.938Z,100.00
2022-10-23T07:15:51.181Z,100.00
2022-10-23T07:16:55.047Z,100.00
2022-10-23T07:17:57.499Z,100.00
2022-10-23T07:19:01.455Z,100.00
2022-10-23T07:20:04.246Z,100.00
2022-10-23T07:21:06.268Z,100.00
2022-10-23T07:22:09.735Z,100.00
2022-10-23T07:23:32.024Z,100.00
2022-10-23T07:24:34.911Z,100.00
2022-10-23T07:25:37.773Z,100.00
2022-10-23T07:26:41.231Z,100.00
2022-10-23T07:27:44.396Z,100.00
2022-10-23T07:28:49.310Z,100.00
2022-10-23T07:29:53.334Z,100.00
2022-10-23T07:30:58.254Z,100.00
2022-10-23T07:32:02.645Z,100.00
2022-10-23T07:33:17.796Z,100.00
2022-10-23T07:34:32.247Z,100.00
2022-10-23T07:35:45.077Z,100.00
2022-10-23T07:36:50.301Z,100.00
2022-10-23T07:37:53.063Z,100.00
2022-10-23T07:38:55.691Z,100.00
2022-10-23T07:39:57.662Z,100.00
2022-10-23T07:41:01.631Z,100.00
2022-10-23T07:42:04.170Z,100.00
2022-10-23T07:43:08.402Z,100.00
2022-10-23T07:44:11.753Z,100.00
2022-10-23T07:45:13.650Z,100.00
2022-10-23T07:46:17.581Z,100.00
2022-10-23T07:47:19.933Z,100.00
2022-10-23T07:48:24.494Z,100.00
2022-10-23T07:49:31.136Z,100.00
2022-10-23T07:50:33.665Z,100.00
2022-10-23T07:51:35.590Z,100.00
2022-10-23T07:52:37.759Z,100.00
2022-10-23T07:53:44.439Z,100.00
2022-10-23T07:54:50.839Z,100.00
2022-10-23T07:55:58.447Z,100.00
2022-10-23T07:57:03.353Z,100.00
2022-10-23T07:58:10.218Z,100.00
2022-10-23T07:59:14.888Z,100.00
2022-10-23T08:00:19.011Z,100.00
2022-10-23T08:01:32.276Z,100.00
2022-10-23T08:02:35.923Z,100.00
2022-10-23T08:03:38.359Z,100.00
2022-10-23T08:04:40.598Z,100.00
2022-10-23T08:05:52.831Z,100.00
2022-10-23T08:06:56.202Z,100.00
2022-10-23T08:07:59.361Z,100.00
2022-10-23T08:09:06.308Z,100.00
2022-10-23T08:10:09.029Z,100.00
2022-10-23T08:11:14.492Z,100.00
2022-10-23T08:12:18.483Z,100.00
2022-10-23T08:13:22.847Z,100.00
2022-10-23T08:14:27.258Z,100.00
2022-10-23T08:15:31.288Z,100.00
2022-10-23T08:16:37.653Z,100.00
2022-10-23T08:17:45.097Z,100.00
2022-10-23T08:18:50.232Z,100.00
2022-10-23T08:19:53.166Z,100.00
2022-10-23T08:21:00.902Z,100.00
2022-10-23T08:22:03.761Z,100.00
2022-10-23T08:23:06.305Z,100.00
2022-10-23T08:24:10.866Z,100.00
2022-10-23T08:25:13.012Z,100.00
2022-10-23T08:26:15.440Z,100.00
2022-10-23T08:27:17.399Z,100.00
2022-10-23T08:28:21.748Z,100.00
2022-10-23T08:29:25.710Z,100.00
2022-10-23T08:30:28.647Z,100.00
2022-10-23T08:31:32.633Z,100.00
2022-10-23T08:32:45.721Z,100.00
2022-10-23T08:34:52.604Z,100.00
2022-10-23T08:35:57.087Z,100.00
2022-10-23T08:37:01.579Z,100.00
2022-10-23T08:38:05.034Z,100.00
2022-10-23T08:39:10.217Z,100.00
2022-10-23T08:40:19.982Z,100.00
2022-10-23T08:41:43.404Z,100.00
2022-10-23T08:42:53.810Z,100.00
2022-10-23T08:44:00.675Z,100.00
2022-10-23T08:45:08.728Z,100.00
2022-10-23T08:46:17.130Z,100.00
2022-10-23T08:47:47.685Z,100.00
2022-10-23T08:49:14.975Z,100.00
2022-10-23T08:50:32.230Z,100.00
2022-10-23T08:51:43.892Z,100.00
2022-10-23T08:52:55.726Z,100.00
2022-10-23T08:54:04.457Z,100.00
2022-10-23T08:55:21.921Z,100.00
2022-10-23T08:56:39.592Z,100.00
2022-10-23T08:58:02.080Z,100.00
2022-10-23T08:59:23.062Z,100.00
2022-10-23T09:00:25.573Z,100.00
2022-10-23T09:01:34.311Z,100.00
2022-10-23T09:02:40.267Z,100.00
2022-10-23T09:03:43.169Z,100.00
2022-10-23T09:04:49.226Z,100.00
2022-10-23T09:06:07.241Z,100.00
2022-10-23T09:07:35.614Z,100.00
2022-10-23T09:08:56.258Z,100.00
2022-10-23T09:10:07.705Z,100.00
2022-10-23T09:11:16.497Z,100.00
2022-10-23T09:12:24.850Z,100.00
2022-10-23T09:13:39.757Z,100.00
2022-10-23T09:15:00.585Z,100.00
2022-10-23T09:16:18.561Z,100.00
2022-10-23T09:17:38.845Z,100.00
2022-10-23T09:18:42.770Z,100.00
2022-10-23T09:19:45.622Z,100.00
2022-10-23T09:20:47.698Z,100.00
2022-10-23T09:21:49.789Z,100.00
2022-10-23T09:22:58.915Z,100.00
2022-10-23T09:24:01.420Z,100.00
2022-10-23T09:25:10.680Z,100.00
2022-10-23T09:26:15.829Z,100.00
2022-10-23T09:27:17.882Z,100.00
2022-10-23T09:28:26.229Z,100.00
2022-10-23T09:29:34.655Z,100.00
2022-10-23T09:30:39.638Z,100.00
2022-10-23T09:31:56.952Z,100.00
2022-10-23T09:33:00.453Z,100.00
2022-10-23T09:34:02.406Z,100.00
2022-10-23T09:35:05.872Z,100.00
2022-10-23T09:36:15.354Z,100.00
2022-10-23T09:37:25.120Z,100.00
2022-10-23T09:38:33.258Z,100.00
2022-10-23T09:39:37.282Z,100.00
2022-10-23T09:40:42.424Z,100.00
2022-10-23T09:41:44.345Z,100.00
2022-10-23T09:43:05.251Z,100.00
2022-10-23T09:44:16.815Z,100.00
2022-10-23T09:46:43.106Z,100.00
2022-10-23T09:47:45.422Z,100.00
2022-10-23T09:48:51.781Z,100.00
2022-10-23T09:49:56.313Z,100.00
2022-10-23T09:51:01.611Z,100.00
2022-10-23T09:52:13.302Z,100.00
2022-10-23T09:54:32.539Z,100.00
2022-10-23T09:55:34.996Z,100.00
2022-10-23T09:56:40.546Z,100.00
2022-10-23T09:57:44.660Z,100.00
2022-10-23T09:59:02.506Z,100.00
2022-10-23T10:00:08.641Z,100.00
2022-10-23T10:01:31.175Z,100.00
2022-10-23T10:02:36.503Z,100.00
2022-10-23T10:03:46.908Z,100.00
2022-10-23T10:04:49.344Z,100.00
2022-10-23T10:06:00.551Z,100.00
2022-10-23T10:07:05.755Z,100.00
2022-10-23T10:08:26.526Z,100.00
2022-10-23T10:09:30.136Z,100.00
2022-10-23T10:10:38.617Z,100.00
2022-10-23T10:11:47.335Z,100.00
2022-10-23T10:12:53.301Z,100.00
2022-10-23T10:14:08.254Z,100.00
2022-10-23T10:16:33.927Z,100.00
2022-10-23T10:18:00.921Z,100.00
2022-10-23T10:19:26.121Z,100.00
2022-10-23T10:20:40.821Z,100.00
2022-10-23T10:22:02.386Z,100.00
2022-10-23T10:23:20.364Z,100.00
2022-10-23T10:25:39.356Z,100.00
2022-10-23T10:26:51.199Z,100.00
2022-10-23T10:27:56.959Z,100.00
2022-10-23T10:29:02.642Z,100.00
2022-10-23T10:30:18.476Z,100.00
2022-10-23T10:31:30.184Z,100.00
2022-10-23T10:32:41.788Z,100.00
2022-10-23T10:34:00.503Z,100.00
2022-10-23T10:35:06.225Z,100.00
2022-10-23T10:36:15.098Z,100.00
2022-10-23T10:37:35.987Z,100.00
2022-10-23T10:39:00.331Z,100.00
2022-10-23T10:40:06.208Z,100.00
2022-10-23T10:41:33.654Z,100.00
2022-10-23T10:43:05.362Z,100.00
2022-10-23T10:44:27.528Z,100.00
2022-10-23T10:45:45.227Z,100.00
2022-10-23T10:46:56.891Z,100.00
2022-10-23T10:48:19.770Z,100.00
2022-10-23T10:51:35.693Z,100.00
2022-10-23T10:52:59.488Z,100.00
2022-10-23T10:54:17.455Z,100.00
2022-10-23T10:55:35.092Z,100.00
2022-10-23T10:56:40.815Z,100.00
2022-10-23T10:59:30.868Z,100.00
2022-10-23T11:00:33.681Z,100.00
2022-10-23T11:02:03.337Z,100.00
2022-10-23T11:03:26.877Z,100.00
2022-10-23T11:04:35.461Z,100.00
2022-10-23T11:05:43.833Z,100.00
2022-10-23T11:06:49.612Z,100.00
2022-10-23T11:07:58.411Z,100.00
2022-10-23T11:09:19.855Z,100.00
2022-10-23T11:11:30.598Z,100.00
2022-10-23T11:12:32.610Z,100.00
2022-10-23T11:13:38.164Z,100.00
2022-10-23T11:14:42.058Z,100.00
2022-10-23T11:15:44.717Z,100.00
2022-10-23T11:16:53.346Z,100.00
2022-10-23T11:18:01.717Z,100.00
2022-10-23T11:19:11.373Z,100.00
2022-10-23T11:20:28.171Z,100.00
2022-10-23T11:21:39.779Z,100.00
2022-10-23T11:22:51.755Z,100.00
2022-10-23T11:24:19.057Z,100.00
2022-10-23T11:25:44.714Z,100.00
2022-10-23T11:26:56.613Z,100.00
2022-10-23T11:28:20.151Z,100.00
2022-10-23T11:29:38.016Z,100.00
2022-10-23T11:31:00.288Z,100.00
2022-10-23T11:32:05.892Z,100.00
2022-10-23T11:33:30.188Z,100.00
2022-10-23T11:34:56.868Z,100.00
2022-10-23T11:36:14.485Z,100.00
2022-10-23T11:37:18.947Z,100.00
2022-10-23T11:38:27.446Z,100.00
2022-10-23T11:39:32.500Z,100.00
2022-10-23T11:40:38.666Z,100.00
2022-10-23T11:41:50.439Z,100.00
2022-10-23T11:42:52.517Z,100.00
2022-10-23T11:43:59.792Z,100.00
2022-10-23T11:45:02.151Z,100.00
2022-10-23T11:46:27.459Z,100.00
2022-10-23T11:47:40.336Z,100.00
2022-10-23T11:48:44.858Z,100.00
2022-10-23T11:49:46.975Z,100.00
2022-10-23T11:50:51.836Z,100.00
2022-10-23T11:52:05.252Z,100.00
2022-10-23T11:53:15.150Z,100.00
2022-10-23T11:54:18.469Z,100.00
2022-10-23T11:55:26.694Z,100.00
2022-10-23T11:56:28.777Z,100.00
2022-10-23T11:57:32.452Z,100.00
2022-10-23T11:58:47.568Z,100.00
2022-10-23T11:59:53.881Z,100.00
2022-10-23T12:02:23.305Z,100.00
2022-10-23T12:03:31.616Z,100.00
2022-10-23T12:04:44.000Z,100.00
2022-10-23T12:05:47.296Z,100.00
2022-10-23T12:06:53.263Z,100.00
2022-10-23T12:08:02.906Z,100.00
2022-10-23T12:09:20.570Z,100.00
2022-10-23T12:10:34.754Z,100.00
2022-10-23T12:11:43.297Z,100.00
2022-10-23T12:12:57.543Z,100.00
2022-10-23T12:13:59.604Z,100.00
2022-10-23T12:15:14.870Z,100.00
2022-10-23T12:16:17.266Z,100.00
2022-10-23T12:17:26.411Z,100.00
2022-10-23T12:18:28.571Z,100.00
2022-10-23T12:19:34.202Z,100.00
2022-10-23T12:20:46.239Z,100.00
2022-10-23T12:21:51.069Z,100.00
2022-10-23T12:22:59.887Z,100.00
2022-10-23T12:24:25.326Z,100.00
2022-10-23T12:25:40.143Z,100.00
2022-10-23T12:26:46.893Z,100.00
2022-10-23T12:28:15.172Z,100.00
2022-10-23T12:29:20.923Z,100.00
2022-10-23T12:30:26.603Z,100.00
2022-10-23T12:31:47.067Z,100.00
2022-10-23T12:33:14.687Z,100.00
2022-10-23T12:35:43.539Z,100.00
2022-10-23T12:36:58.758Z,100.00
2022-10-23T12:38:04.469Z,100.00
2022-10-23T12:39:30.321Z,100.00
2022-10-23T12:40:32.602Z,100.00
2022-10-23T12:41:37.939Z,100.00
2022-10-23T12:42:40.861Z,100.00
2022-10-23T12:43:46.677Z,100.00
2022-10-23T12:44:57.926Z,100.00
2022-10-23T12:47:18.402Z,100.00
2022-10-23T12:48:23.189Z,100.00
2022-10-23T12:49:28.118Z,100.00
2022-10-23T12:50:32.886Z,100.00
2022-10-23T12:51:35.554Z,100.00
2022-10-23T12:52:37.370Z,100.00
2022-10-23T12:53:39.388Z,100.00
2022-10-23T12:54:41.915Z,100.00
2022-10-23T12:57:15.730Z,100.00
2022-10-23T12:58:24.068Z,100.00
2022-10-23T12:59:38.289Z,100.00
2022-10-23T13:00:44.621Z,100.00
2022-10-23T13:01:50.428Z,100.00
2022-10-23T13:03:02.743Z,100.00
2022-10-23T13:04:11.436Z,100.00
2022-10-23T13:05:17.608Z,100.00
2022-10-23T13:06:20.346Z,100.00
2022-10-23T13:07:35.527Z,100.00
2022-10-23T13:08:46.673Z,100.00
2022-10-23T13:09:51.122Z,100.00
2022-10-23T13:10:55.397Z,100.00
2022-10-23T13:11:59.466Z,100.00
2022-10-23T13:13:05.217Z,100.00
2022-10-23T13:14:12.361Z,100.00
2022-10-23T13:15:18.879Z,100.00
2022-10-23T13:16:23.794Z,100.00
2022-10-23T13:17:39.773Z,100.00
2022-10-23T13:18:41.926Z,100.00
2022-10-23T13:19:44.135Z,100.00
2022-10-23T13:20:57.024Z,100.00
2022-10-23T13:22:01.280Z,100.00
2022-10-23T13:23:31.157Z,100.00
2022-10-23T13:24:33.614Z,100.00
2022-10-23T13:25:37.947Z,100.00
2022-10-23T13:26:41.217Z,100.00
2022-10-23T13:27:44.214Z,100.00
2022-10-23T13:28:47.298Z,100.00
2022-10-23T13:29:49.382Z,100.00
2022-10-23T13:32:15.146Z,100.00
2022-10-23T13:33:25.120Z,100.00
2022-10-23T13:34:29.898Z,100.00
2022-10-23T13:35:33.330Z,100.00
2022-10-23T13:36:36.919Z,100.00
2022-10-23T13:37:40.468Z,100.00
2022-10-23T13:38:50.050Z,100.00
2022-10-23T13:40:06.685Z,100.00
2022-10-23T13:41:12.071Z,100.00
2022-10-23T13:42:14.459Z,100.00
2022-10-23T13:43:17.062Z,100.00
2022-10-23T13:44:23.776Z,100.00
2022-10-23T13:45:27.048Z,100.00
2022-10-23T13:46:29.240Z,100.00
2022-10-23T13:47:32.152Z,100.00
2022-10-23T13:48:35.256Z,100.00
2022-10-23T13:49:38.426Z,100.00
2022-10-23T13:50:40.888Z,100.00
2022-10-23T13:51:49.535Z,100.00
2022-10-23T13:52:52.431Z,100.00
2022-10-23T13:53:55.788Z,100.00
2022-10-23T13:54:58.194Z,100.00
2022-10-23T13:56:00.850Z,100.00
2022-10-23T13:57:02.694Z,100.00
2022-10-23T13:58:04.615Z,100.00
2022-10-23T13:59:08.449Z,100.00
2022-10-23T14:00:11.920Z,100.00
2022-10-23T14:01:29.586Z,100.00
2022-10-23T14:02:31.763Z,100.00
2022-10-23T14:03:33.661Z,100.00
2022-10-23T14:04:36.138Z,100.00
2022-10-23T14:05:39.003Z,100.00
2022-10-23T14:06:41.725Z,100.00
2022-10-23T14:07:43.726Z,100.00
2022-10-23T14:08:46.254Z,100.00
2022-10-23T14:09:50.579Z,100.00
2022-10-23T14:10:52.780Z,100.00
2022-10-23T14:11:54.714Z,100.00
2022-10-23T14:12:57.527Z,100.00
2022-10-23T14:13:59.487Z,100.00
2022-10-23T14:15:02.362Z,100.00
2022-10-23T14:16:05.561Z,100.00
2022-10-23T14:18:27.983Z,100.00
2022-10-23T14:19:29.804Z,100.00
2022-10-23T14:20:34.535Z,99.69
2022-10-23T14:21:36.568Z,99.16
2022-10-23T14:22:39.569Z,99.38
2022-10-23T14:23:41.559Z,98.62
2022-10-23T14:24:43.921Z,98.37
2022-10-23T14:25:45.808Z,98.27
2022-10-23T14:26:47.783Z,98.27
2022-10-23T14:27:49.834Z,98.85
2022-10-23T14:28:53.190Z,98.74
2022-10-23T14:29:55.974Z,98.81
2022-10-23T14:30:59.781Z,98.86
2022-10-23T14:32:01.919Z,98.63